sensor_id;sensor_type;location;lat;lon;timestamp;temperature;humidity
12287;DHT22;6206;53.100;11.098;2022-10-23T00:01:25;13.80;99.90
12287;DHT22;6206;53.100;11.098;2022-10-23T00:03:55;13.80;99.90
12287;DHT22;6206;53.100;11.098;2022-10-23T00:06:22;13.70;99.90
12287;DHT22;6206;53.100;11.098;2022-10-23T00:08:49;13.70;99.90
12287;DHT22;6206;53.100;11.098;2022-10-23T00:11:18;13.60;99.90
12287;DHT22;6206;53.100;11.098;2022-10-23T00:13:46;13.70;99.90
12287;DHT22;6206;53.100;11.098;2022-10-23T00:16:13;13.70;99.90
12287;DHT22;6206;53.100;11.098;2022-10-23T00:18:41;13.70;99.90
12287;DHT22;6206;53.100;11.098;2022-10-23T00:21:10;13.70;99.90
12287;DHT22;6206;53.100;11.098;2022-10-23T00:23:37;13.50;99.90
12287;DHT22;6206;53.100;11.098;2022-10-23T00:26:05;13.50;99.90
12287;DHT22;6206;53.100;11.098;2022-10-23T00:28:32;13.40;99.90
12287;DHT22;6206;53.100;11.098;2022-10-23T00:31:00;13.70;99.90
12287;DHT22;6206;53.100;11.098;2022-10-23T00:33:27;13.40;99.90
12287;DHT22;6206;53.100;11.098;2022-10-23T00:35:56;12.70;99.90
12287;DHT22;6206;53.100;11.098;2022-10-23T00:38:23;13.00;99.90
12287;DHT22;6206;53.100;11.098;2022-10-23T00:40:50;12.90;99.90
12287;DHT22;6206;53.100;11.098;2022-10-23T00:43:18;12.60;99.90
12287;DHT22;6206;53.100;11.098;2022-10-23T00:45:45;12.70;99.90
12287;DHT22;6206;53.100;11.098;2022-10-23T00:48:12;12.30;99.90
12287;DHT22;6206;53.100;11.098;2022-10-23T00:50:39;13.00;99.90
12287;DHT22;6206;53.100;11.098;2022-10-23T00:53:09;12.10;99.90
12287;DHT22;6206;53.100;11.098;2022-10-23T00:55:38;12.00;99.90
12287;DHT22;6206;53.100;11.098;2022-10-23T00:58:10;11.90;99.90
12287;DHT22;6206;53.100;11.098;2022-10-23T01:00:43;12.00;99.90
12287;DHT22;6206;53.100;11.098;2022-10-23T01:03:10;12.20;99.90
12287;DHT22;6206;53.100;11.098;2022-10-23T01:05:43;12.20;99.90
12287;DHT22;6206;53.100;11.098;2022-10-23T01:08:17;12.30;99.90
12287;DHT22;6206;53.100;11.098;2022-10-23T01:10:47;12.30;99.90
12287;DHT22;6206;53.100;11.098;2022-10-23T01:13:31;12.30;99.90
12287;DHT22;6206;53.100;11.098;2022-10-23T01:16:06;12.30;99.90
12287;DHT22;6206;53.100;11.098;2022-10-23T01:18:38;12.30;99.90
12287;DHT22;6206;53.100;11.098;2022-10-23T01:21:11;12.30;99.90
12287;DHT22;6206;53.100;11.098;2022-10-23T01:24:00;12.20;99.90
12287;DHT22;6206;53.100;11.098;2022-10-23T01:26:43;12.20;99.90
12287;DHT22;6206;53.100;11.098;2022-10-23T01:29:17;12.00;99.90
12287;DHT22;6206;53.100;11.098;2022-10-23T01:31:50;15.90;99.90
12287;DHT22;6206;53.100;11.098;2022-10-23T01:34:24;11.50;99.90
12287;DHT22;6206;53.100;11.098;2022-10-23T01:36:53;11.20;99.90
12287;DHT22;6206;53.100;11.098;2022-10-23T01:39:23;11.00;99.90
12287;DHT22;6206;53.100;11.098;2022-10-23T01:41:54;11.20;99.90
12287;DHT22;6206;53.100;11.098;2022-10-23T01:44:26;11.80;99.90
12287;DHT22;6206;53.100;11.098;2022-10-23T01:46:55;11.50;99.90
12287;DHT22;6206;53.100;11.098;2022-10-23T01:49:23;11.60;99.90
12287;DHT22;6206;53.100;11.098;2022-10-23T01:51:54;11.60;99.90
12287;DHT22;6206;53.100;11.098;2022-10-23T01:54:25;11.60;99.90
12287;DHT22;6206;53.100;11.098;2022-10-23T01:56:55;11.60;99.90
12287;DHT22;6206;53.100;11.098;2022-10-23T01:59:27;11.60;99.90
12287;DHT22;6206;53.100;11.098;2022-10-23T02:01:57;11.60;99.90
12287;DHT22;6206;53.100;11.098;2022-10-23T02:04:28;11.50;99.90
12287;DHT22;6206;53.100;11.098;2022-10-23T02:06:56;11.60;99.90
12287;DHT22;6206;53.100;11.098;2022-10-23T02:09:23;12.40;99.90
12287;DHT22;6206;53.100;11.098;2022-10-23T02:11:54;11.60;99.90
12287;DHT22;6206;53.100;11.098;2022-10-23T02:14:32;11.60;99.90
12287;DHT22;6206;53.100;11.098;2022-10-23T02:17:06;11.60;99.90
12287;DHT22;6206;53.100;11.098;2022-10-23T02:19:41;11.60;99.90
12287;DHT22;6206;53.100;11.098;2022-10-23T02:22:12;11.50;99.90
12287;DHT22;6206;53.100;11.098;2022-10-23T02:24:44;11.40;99.90
12287;DHT22;6206;53.100;11.098;2022-10-23T02:27:15;11.20;99.90
12287;DHT22;6206;53.100;11.098;2022-10-23T02:29:47;11.60;99.90
12287;DHT22;6206;53.100;11.098;2022-10-23T02:32:16;11.40;99.90
12287;DHT22;6206;53.100;11.098;2022-10-23T02:34:44;11.40;99.90
12287;DHT22;6206;53.100;11.098;2022-10-23T02:37:11;11.30;99.90
12287;DHT22;6206;53.100;11.098;2022-10-23T02:39:38;11.30;99.90
12287;DHT22;6206;53.100;11.098;2022-10-23T02:42:08;12.10;99.90
12287;DHT22;6206;53.100;11.098;2022-10-23T02:44:45;12.20;99.90
12287;DHT22;6206;53.100;11.098;2022-10-23T02:47:23;11.30;99.90
12287;DHT22;6206;53.100;11.098;2022-10-23T02:50:02;11.30;99.90
12287;DHT22;6206;53.100;11.098;2022-10-23T02:52:35;12.00;99.90
12287;DHT22;6206;53.100;11.098;2022-10-23T02:55:20;11.30;99.90
12287;DHT22;6206;53.100;11.098;2022-10-23T02:57:53;12.00;99.90
12287;DHT22;6206;53.100;11.098;2022-10-23T03:00:23;11.20;99.90
12287;DHT22;6206;53.100;11.098;2022-10-23T03:02:54;11.20;99.90
12287;DHT22;6206;53.100;11.098;2022-10-23T03:05:27;12.70;99.90
12287;DHT22;6206;53.100;11.098;2022-10-23T03:07:55;11.90;99.90
12287;DHT22;6206;53.100;11.098;2022-10-23T03:10:22;11.10;99.90
12287;DHT22;6206;53.100;11.098;2022-10-23T03:12:49;11.80;99.90
12287;DHT22;6206;53.100;11.098;2022-10-23T03:15:16;12.10;99.90
12287;DHT22;6206;53.100;11.098;2022-10-23T03:17:45;11.00;99.90
12287;DHT22;6206;53.100;11.098;2022-10-23T03:20:11;11.00;99.90
12287;DHT22;6206;53.100;11.098;2022-10-23T03:22:38;11.00;99.90
12287;DHT22;6206;53.100;11.098;2022-10-23T03:25:06;11.00;99.90
12287;DHT22;6206;53.100;11.098;2022-10-23T03:27:33;11.00;99.90
12287;DHT22;6206;53.100;11.098;2022-10-23T03:30:00;11.70;99.90
12287;DHT22;6206;53.100;11.098;2022-10-23T03:32:27;10.90;99.90
12287;DHT22;6206;53.100;11.098;2022-10-23T03:34:55;10.90;99.90
12287;DHT22;6206;53.100;11.098;2022-10-23T03:37:22;11.20;99.90
12287;DHT22;6206;53.100;11.098;2022-10-23T03:39:49;10.80;99.90
12287;DHT22;6206;53.100;11.098;2022-10-23T03:42:16;10.80;99.90
12287;DHT22;6206;53.100;11.098;2022-10-23T03:44:43;12.20;99.90
12287;DHT22;6206;53.100;11.098;2022-10-23T03:47:10;11.00;99.90
12287;DHT22;6206;53.100;11.098;2022-10-23T03:49:37;10.80;99.90
12287;DHT22;6206;53.100;11.098;2022-10-23T03:52:05;11.80;99.90
12287;DHT22;6206;53.100;11.098;2022-10-23T03:54:32;11.90;99.90
12287;DHT22;6206;53.100;11.098;2022-10-23T03:57:00;12.40;99.90
12287;DHT22;6206;53.100;11.098;2022-10-23T03:59:27;10.70;99.90
12287;DHT22;6206;53.100;11.098;2022-10-23T04:01:54;11.90;99.90
12287;DHT22;6206;53.100;11.098;2022-10-23T04:04:20;10.70;99.90
12287;DHT22;6206;53.100;11.098;2022-10-23T04:06:47;10.70;99.90
12287;DHT22;6206;53.100;11.098;2022-10-23T04:09:15;10.40;99.90
12287;DHT22;6206;53.100;11.098;2022-10-23T04:11:42;13.00;99.90
12287;DHT22;6206;53.100;11.098;2022-10-23T04:14:10;11.00;99.90
12287;DHT22;6206;53.100;11.098;2022-10-23T04:16:37;11.80;99.90
12287;DHT22;6206;53.100;11.098;2022-10-23T04:19:04;10.80;99.90
12287;DHT22;6206;53.100;11.098;2022-10-23T04:21:31;10.40;99.90
12287;DHT22;6206;53.100;11.098;2022-10-23T04:23:58;10.40;99.90
12287;DHT22;6206;53.100;11.098;2022-10-23T04:26:26;10.80;99.90
12287;DHT22;6206;53.100;11.098;2022-10-23T04:28:52;12.00;99.90
12287;DHT22;6206;53.100;11.098;2022-10-23T04:31:19;10.30;99.90
12287;DHT22;6206;53.100;11.098;2022-10-23T04:33:46;10.50;99.90
12287;DHT22;6206;53.100;11.098;2022-10-23T04:36:13;10.30;99.90
12287;DHT22;6206;53.100;11.098;2022-10-23T04:38:40;10.30;99.90
12287;DHT22;6206;53.100;11.098;2022-10-23T04:41:07;10.20;99.90
12287;DHT22;6206;53.100;11.098;2022-10-23T04:43:35;10.10;99.90
12287;DHT22;6206;53.100;11.098;2022-10-23T04:46:02;9.80;99.90
12287;DHT22;6206;53.100;11.098;2022-10-23T04:48:29;9.60;99.90
12287;DHT22;6206;53.100;11.098;2022-10-23T04:50:56;9.60;99.90
12287;DHT22;6206;53.100;11.098;2022-10-23T04:53:24;9.50;99.90
12287;DHT22;6206;53.100;11.098;2022-10-23T04:55:51;9.90;99.90
12287;DHT22;6206;53.100;11.098;2022-10-23T04:58:18;11.40;99.90
12287;DHT22;6206;53.100;11.098;2022-10-23T05:00:47;11.00;99.90
12287;DHT22;6206;53.100;11.098;2022-10-23T05:03:14;10.10;99.90
12287;DHT22;6206;53.100;11.098;2022-10-23T05:05:41;10.10;99.90
12287;DHT22;6206;53.100;11.098;2022-10-23T05:08:09;11.70;99.90
12287;DHT22;6206;53.100;11.098;2022-10-23T05:10:36;10.10;99.90
12287;DHT22;6206;53.100;11.098;2022-10-23T05:13:03;10.30;99.90
12287;DHT22;6206;53.100;11.098;2022-10-23T05:15:30;10.20;99.90
12287;DHT22;6206;53.100;11.098;2022-10-23T05:18:03;12.30;99.90
12287;DHT22;6206;53.100;11.098;2022-10-23T05:20:32;9.90;99.90
12287;DHT22;6206;53.100;11.098;2022-10-23T05:23:01;10.30;99.90
12287;DHT22;6206;53.100;11.098;2022-10-23T05:25:29;11.30;99.90
12287;DHT22;6206;53.100;11.098;2022-10-23T05:27:55;11.50;99.90
12287;DHT22;6206;53.100;11.098;2022-10-23T05:30:22;10.20;99.90
12287;DHT22;6206;53.100;11.098;2022-10-23T05:32:49;10.60;99.90
12287;DHT22;6206;53.100;11.098;2022-10-23T05:35:20;9.90;99.90
12287;DHT22;6206;53.100;11.098;2022-10-23T05:37:48;11.10;99.90
12287;DHT22;6206;53.100;11.098;2022-10-23T05:40:16;10.20;99.90
12287;DHT22;6206;53.100;11.098;2022-10-23T05:42:43;10.20;99.90
12287;DHT22;6206;53.100;11.098;2022-10-23T05:45:10;10.20;99.90
12287;DHT22;6206;53.100;11.098;2022-10-23T05:47:36;10.20;99.90
12287;DHT22;6206;53.100;11.098;2022-10-23T05:50:04;10.30;99.90
12287;DHT22;6206;53.100;11.098;2022-10-23T05:52:32;10.30;99.90
12287;DHT22;6206;53.100;11.098;2022-10-23T05:54:59;11.10;99.90
12287;DHT22;6206;53.100;11.098;2022-10-23T05:57:25;10.20;99.90
12287;DHT22;6206;53.100;11.098;2022-10-23T05:59:52;11.30;99.90
12287;DHT22;6206;53.100;11.098;2022-10-23T06:02:19;10.60;99.90
12287;DHT22;6206;53.100;11.098;2022-10-23T06:04:45;11.70;99.90
12287;DHT22;6206;53.100;11.098;2022-10-23T06:07:12;12.30;99.90
12287;DHT22;6206;53.100;11.098;2022-10-23T06:09:40;10.20;99.90
12287;DHT22;6206;53.100;11.098;2022-10-23T06:12:07;10.10;99.90
12287;DHT22;6206;53.100;11.098;2022-10-23T06:14:34;10.10;99.90
12287;DHT22;6206;53.100;11.098;2022-10-23T06:17:01;10.10;99.90
12287;DHT22;6206;53.100;11.098;2022-10-23T06:19:27;10.10;99.90
12287;DHT22;6206;53.100;11.098;2022-10-23T06:21:54;10.10;99.90
12287;DHT22;6206;53.100;11.098;2022-10-23T06:24:21;9.90;99.90
12287;DHT22;6206;53.100;11.098;2022-10-23T06:26:49;9.90;99.90
12287;DHT22;6206;53.100;11.098;2022-10-23T06:29:16;10.60;99.90
12287;DHT22;6206;53.100;11.098;2022-10-23T06:31:43;10.20;99.90
12287;DHT22;6206;53.100;11.098;2022-10-23T06:34:10;10.00;99.90
12287;DHT22;6206;53.100;11.098;2022-10-23T06:36:37;10.00;99.90
12287;DHT22;6206;53.100;11.098;2022-10-23T06:39:04;10.00;99.90
12287;DHT22;6206;53.100;11.098;2022-10-23T06:41:31;10.40;99.90
12287;DHT22;6206;53.100;11.098;2022-10-23T06:44:00;10.20;99.90
12287;DHT22;6206;53.100;11.098;2022-10-23T06:46:27;10.00;99.90
12287;DHT22;6206;53.100;11.098;2022-10-23T06:48:57;9.90;99.90
12287;DHT22;6206;53.100;11.098;2022-10-23T06:51:24;10.10;99.90
12287;DHT22;6206;53.100;11.098;2022-10-23T06:53:54;10.10;99.90
12287;DHT22;6206;53.100;11.098;2022-10-23T06:56:21;11.50;99.90
12287;DHT22;6206;53.100;11.098;2022-10-23T06:58:49;10.20;99.90
12287;DHT22;6206;53.100;11.098;2022-10-23T07:01:18;10.80;99.90
12287;DHT22;6206;53.100;11.098;2022-10-23T07:03:46;10.30;99.90
12287;DHT22;6206;53.100;11.098;2022-10-23T07:06:14;9.50;99.90
12287;DHT22;6206;53.100;11.098;2022-10-23T07:08:40;10.30;99.90
12287;DHT22;6206;53.100;11.098;2022-10-23T07:11:09;9.80;99.90
12287;DHT22;6206;53.100;11.098;2022-10-23T07:13:37;10.30;99.90
12287;DHT22;6206;53.100;11.098;2022-10-23T07:16:09;10.30;99.90
12287;DHT22;6206;53.100;11.098;2022-10-23T07:18:38;10.40;99.90
12287;DHT22;6206;53.100;11.098;2022-10-23T07:21:05;10.40;99.90
12287;DHT22;6206;53.100;11.098;2022-10-23T07:23:31;12.40;99.90
12287;DHT22;6206;53.100;11.098;2022-10-23T07:26:03;10.70;99.90
12287;DHT22;6206;53.100;11.098;2022-10-23T07:28:29;10.70;99.90
12287;DHT22;6206;53.100;11.098;2022-10-23T07:30:56;10.70;99.90
12287;DHT22;6206;53.100;11.098;2022-10-23T07:33:23;10.70;99.90
12287;DHT22;6206;53.100;11.098;2022-10-23T07:35:51;10.50;99.90
12287;DHT22;6206;53.100;11.098;2022-10-23T07:38:18;10.20;99.90
12287;DHT22;6206;53.100;11.098;2022-10-23T07:40:45;10.10;99.90
12287;DHT22;6206;53.100;11.098;2022-10-23T07:43:12;10.50;99.90
12287;DHT22;6206;53.100;11.098;2022-10-23T07:45:39;11.20;99.90
12287;DHT22;6206;53.100;11.098;2022-10-23T07:48:06;11.60;99.90
12287;DHT22;6206;53.100;11.098;2022-10-23T07:50:33;11.70;99.90
12287;DHT22;6206;53.100;11.098;2022-10-23T07:53:04;10.70;99.90
12287;DHT22;6206;53.100;11.098;2022-10-23T07:55:30;10.70;99.90
12287;DHT22;6206;53.100;11.098;2022-10-23T07:57:57;10.80;99.90
12287;DHT22;6206;53.100;11.098;2022-10-23T08:00:24;11.40;99.90
12287;DHT22;6206;53.100;11.098;2022-10-23T08:02:50;11.10;99.90
12287;DHT22;6206;53.100;11.098;2022-10-23T08:05:18;11.80;99.90
12287;DHT22;6206;53.100;11.098;2022-10-23T08:07:45;11.20;99.90
12287;DHT22;6206;53.100;11.098;2022-10-23T08:10:13;11.20;99.90
12287;DHT22;6206;53.100;11.098;2022-10-23T08:12:40;11.20;99.90
12287;DHT22;6206;53.100;11.098;2022-10-23T08:15:08;12.00;99.90
12287;DHT22;6206;53.100;11.098;2022-10-23T08:17:34;11.10;99.90
12287;DHT22;6206;53.100;11.098;2022-10-23T08:20:01;11.00;99.90
12287;DHT22;6206;53.100;11.098;2022-10-23T08:22:28;11.30;99.90
12287;DHT22;6206;53.100;11.098;2022-10-23T08:24:55;11.20;99.90
12287;DHT22;6206;53.100;11.098;2022-10-23T08:27:23;11.30;99.90
12287;DHT22;6206;53.100;11.098;2022-10-23T08:29:50;11.20;99.90
12287;DHT22;6206;53.100;11.098;2022-10-23T08:32:16;12.00;99.90
12287;DHT22;6206;53.100;11.098;2022-10-23T08:34:43;11.20;99.90
12287;DHT22;6206;53.100;11.098;2022-10-23T08:37:10;11.00;99.90
12287;DHT22;6206;53.100;11.098;2022-10-23T08:39:37;11.00;99.90
12287;DHT22;6206;53.100;11.098;2022-10-23T08:42:04;12.30;99.90
12287;DHT22;6206;53.100;11.098;2022-10-23T08:44:35;11.00;99.90
12287;DHT22;6206;53.100;11.098;2022-10-23T08:47:09;11.00;99.90
12287;DHT22;6206;53.100;11.098;2022-10-23T08:49:42;11.10;99.90
12287;DHT22;6206;53.100;11.098;2022-10-23T08:52:19;11.30;99.90
12287;DHT22;6206;53.100;11.098;2022-10-23T08:55:03;11.50;99.90
12287;DHT22;6206;53.100;11.098;2022-10-23T08:57:34;12.10;99.90
12287;DHT22;6206;53.100;11.098;2022-10-23T09:00:18;12.00;99.90
12287;DHT22;6206;53.100;11.098;2022-10-23T09:02:47;12.50;99.90
12287;DHT22;6206;53.100;11.098;2022-10-23T09:05:17;12.30;99.90
12287;DHT22;6206;53.100;11.098;2022-10-23T09:07:55;12.70;99.90
12287;DHT22;6206;53.100;11.098;2022-10-23T09:10:35;12.90;99.90
12287;DHT22;6206;53.100;11.098;2022-10-23T09:13:19;13.10;99.90
12287;DHT22;6206;53.100;11.098;2022-10-23T09:15:52;13.30;99.90
12287;DHT22;6206;53.100;11.098;2022-10-23T09:18:23;13.70;99.90
12287;DHT22;6206;53.100;11.098;2022-10-23T09:20:50;14.70;99.90
12287;DHT22;6206;53.100;11.098;2022-10-23T09:23:21;14.00;99.90
12287;DHT22;6206;53.100;11.098;2022-10-23T09:25:50;14.20;99.90
12287;DHT22;6206;53.100;11.098;2022-10-23T09:28:24;14.20;99.90
12287;DHT22;6206;53.100;11.098;2022-10-23T09:30:52;16.30;99.90
12287;DHT22;6206;53.100;11.098;2022-10-23T09:33:21;15.90;99.90
12287;DHT22;6206;53.100;11.098;2022-10-23T09:35:53;14.30;99.90
12287;DHT22;6206;53.100;11.098;2022-10-23T09:38:29;14.60;99.90
12287;DHT22;6206;53.100;11.098;2022-10-23T09:40:58;14.70;99.90
12287;DHT22;6206;53.100;11.098;2022-10-23T09:43:25;14.80;99.90
12287;DHT22;6206;53.100;11.098;2022-10-23T09:45:58;14.70;99.90
12287;DHT22;6206;53.100;11.098;2022-10-23T09:48:25;14.70;99.90
12287;DHT22;6206;53.100;11.098;2022-10-23T09:50:54;15.90;99.90
12287;DHT22;6206;53.100;11.098;2022-10-23T09:53:29;14.90;99.90
12287;DHT22;6206;53.100;11.098;2022-10-23T09:55:59;15.00;99.90
12287;DHT22;6206;53.100;11.098;2022-10-23T09:58:31;14.50;99.90
12287;DHT22;6206;53.100;11.098;2022-10-23T10:01:00;15.10;99.90
12287;DHT22;6206;53.100;11.098;2022-10-23T10:03:27;15.10;99.90
12287;DHT22;6206;53.100;11.098;2022-10-23T10:05:59;15.30;99.90
12287;DHT22;6206;53.100;11.098;2022-10-23T10:08:35;15.40;99.90
12287;DHT22;6206;53.100;11.098;2022-10-23T10:11:11;16.10;99.90
12287;DHT22;6206;53.100;11.098;2022-10-23T10:14:01;16.30;99.90
12287;DHT22;6206;53.100;11.098;2022-10-23T10:16:40;15.90;99.90
12287;DHT22;6206;53.100;11.098;2022-10-23T10:19:17;16.00;99.90
12287;DHT22;6206;53.100;11.098;2022-10-23T10:21:51;19.30;99.90
12287;DHT22;6206;53.100;11.098;2022-10-23T10:24:21;16.00;99.90
12287;DHT22;6206;53.100;11.098;2022-10-23T10:26:57;15.70;99.90
12287;DHT22;6206;53.100;11.098;2022-10-23T10:29:43;16.20;99.90
12287;DHT22;6206;53.100;11.098;2022-10-23T10:32:24;16.30;99.90
12287;DHT22;6206;53.100;11.098;2022-10-23T10:35:04;16.50;99.90
12287;DHT22;6206;53.100;11.098;2022-10-23T10:37:51;16.40;99.90
12287;DHT22;6206;53.100;11.098;2022-10-23T10:40:26;16.40;99.90
12287;DHT22;6206;53.100;11.098;2022-10-23T10:43:22;16.60;99.90
12287;DHT22;6206;53.100;11.098;2022-10-23T10:45:55;16.40;99.90
12287;DHT22;6206;53.100;11.098;2022-10-23T10:48:34;16.60;99.90
12287;DHT22;6206;53.100;11.098;2022-10-23T10:51:07;16.80;99.90
12287;DHT22;6206;53.100;11.098;2022-10-23T10:53:45;16.90;99.90
12287;DHT22;6206;53.100;11.098;2022-10-23T10:56:17;16.90;99.90
12287;DHT22;6206;53.100;11.098;2022-10-23T10:58:46;14.80;99.90
12287;DHT22;6206;53.100;11.098;2022-10-23T11:01:20;16.80;99.90
12287;DHT22;6206;53.100;11.098;2022-10-23T11:03:56;17.70;99.90
12287;DHT22;6206;53.100;11.098;2022-10-23T11:06:25;16.80;99.90
12287;DHT22;6206;53.100;11.098;2022-10-23T11:08:54;16.40;99.90
12287;DHT22;6206;53.100;11.098;2022-10-23T11:11:25;16.90;99.90
12287;DHT22;6206;53.100;11.098;2022-10-23T11:13:53;16.80;99.90
12287;DHT22;6206;53.100;11.098;2022-10-23T11:16:27;17.00;99.90
12287;DHT22;6206;53.100;11.098;2022-10-23T11:19:02;16.30;99.90
12287;DHT22;6206;53.100;11.098;2022-10-23T11:21:34;18.30;99.90
12287;DHT22;6206;53.100;11.098;2022-10-23T11:27:17;17.70;99.90
12287;DHT22;6206;53.100;11.098;2022-10-23T11:30:10;17.30;99.90
12287;DHT22;6206;53.100;11.098;2022-10-23T11:32:58;17.20;99.90
12287;DHT22;6206;53.100;11.098;2022-10-23T11:35:41;17.10;99.90
12287;DHT22;6206;53.100;11.098;2022-10-23T11:38:16;17.10;99.90
12287;DHT22;6206;53.100;11.098;2022-10-23T11:40:44;18.40;99.90
12287;DHT22;6206;53.100;11.098;2022-10-23T11:43:12;17.50;99.90
12287;DHT22;6206;53.100;11.098;2022-10-23T11:45:40;17.20;99.90
12287;DHT22;6206;53.100;11.098;2022-10-23T11:48:20;17.70;99.90
12287;DHT22;6206;53.100;11.098;2022-10-23T11:50:53;16.80;99.90
12287;DHT22;6206;53.100;11.098;2022-10-23T11:53:27;18.00;99.90
12287;DHT22;6206;53.100;11.098;2022-10-23T11:56:04;17.60;99.90
12287;DHT22;6206;53.100;11.098;2022-10-23T11:58:42;17.60;99.90
12287;DHT22;6206;53.100;11.098;2022-10-23T12:01:28;19.30;99.90
12287;DHT22;6206;53.100;11.098;2022-10-23T12:04:00;18.90;99.90
12287;DHT22;6206;53.100;11.098;2022-10-23T12:06:31;17.80;99.90
12287;DHT22;6206;53.100;11.098;2022-10-23T12:09:06;17.60;99.90
12287;DHT22;6206;53.100;11.098;2022-10-23T12:11:45;18.60;99.90
12287;DHT22;6206;53.100;11.098;2022-10-23T12:14:26;17.80;99.90
12287;DHT22;6206;53.100;11.098;2022-10-23T12:16:53;17.50;99.90
12287;DHT22;6206;53.100;11.098;2022-10-23T12:19:22;17.80;99.90
12287;DHT22;6206;53.100;11.098;2022-10-23T12:21:52;16.90;99.90
12287;DHT22;6206;53.100;11.098;2022-10-23T12:24:38;17.80;99.90
12287;DHT22;6206;53.100;11.098;2022-10-23T12:27:23;18.00;99.90
12287;DHT22;6206;53.100;11.098;2022-10-23T12:30:02;18.10;99.90
12287;DHT22;6206;53.100;11.098;2022-10-23T12:32:41;18.20;99.90
12287;DHT22;6206;53.100;11.098;2022-10-23T12:35:23;18.30;99.90
12287;DHT22;6206;53.100;11.098;2022-10-23T12:38:04;18.20;99.90
12287;DHT22;6206;53.100;11.098;2022-10-23T12:40:34;18.00;99.90
12287;DHT22;6206;53.100;11.098;2022-10-23T12:43:01;18.30;99.90
12287;DHT22;6206;53.100;11.098;2022-10-23T12:45:29;19.30;99.90
12287;DHT22;6206;53.100;11.098;2022-10-23T12:47:57;18.60;99.90
12287;DHT22;6206;53.100;11.098;2022-10-23T12:50:26;19.40;99.90
12287;DHT22;6206;53.100;11.098;2022-10-23T12:52:56;18.50;99.90
12287;DHT22;6206;53.100;11.098;2022-10-23T12:55:28;18.40;99.90
12287;DHT22;6206;53.100;11.098;2022-10-23T12:57:55;18.50;99.90
12287;DHT22;6206;53.100;11.098;2022-10-23T13:00:24;19.00;99.90
12287;DHT22;6206;53.100;11.098;2022-10-23T13:02:58;18.50;99.90
12287;DHT22;6206;53.100;11.098;2022-10-23T13:05:26;18.40;99.90
12287;DHT22;6206;53.100;11.098;2022-10-23T13:07:53;18.20;99.90
12287;DHT22;6206;53.100;11.098;2022-10-23T13:10:22;18.20;99.90
12287;DHT22;6206;53.100;11.098;2022-10-23T13:12:53;18.00;99.90
12287;DHT22;6206;53.100;11.098;2022-10-23T13:15:21;17.80;99.90
12287;DHT22;6206;53.100;11.098;2022-10-23T13:18:00;17.80;99.90
12287;DHT22;6206;53.100;11.098;2022-10-23T13:20:28;19.30;99.90
12287;DHT22;6206;53.100;11.098;2022-10-23T13:22:58;17.90;99.90
12287;DHT22;6206;53.100;11.098;2022-10-23T13:25:28;17.80;99.90
12287;DHT22;6206;53.100;11.098;2022-10-23T13:28:14;18.70;99.90
12287;DHT22;6206;53.100;11.098;2022-10-23T13:30:42;17.40;99.90
12287;DHT22;6206;53.100;11.098;2022-10-23T13:33:20;18.20;99.90
12287;DHT22;6206;53.100;11.098;2022-10-23T13:35:54;17.40;99.90
12287;DHT22;6206;53.100;11.098;2022-10-23T13:38:27;18.10;99.90
12287;DHT22;6206;53.100;11.098;2022-10-23T13:40:57;17.90;99.90
12287;DHT22;6206;53.100;11.098;2022-10-23T13:43:25;18.20;99.90
12287;DHT22;6206;53.100;11.098;2022-10-23T13:45:52;17.00;99.90
12287;DHT22;6206;53.100;11.098;2022-10-23T13:48:19;17.80;99.90
12287;DHT22;6206;53.100;11.098;2022-10-23T13:50:46;17.70;99.90
12287;DHT22;6206;53.100;11.098;2022-10-23T13:53:13;19.20;99.90
12287;DHT22;6206;53.100;11.098;2022-10-23T13:55:43;18.10;99.90
12287;DHT22;6206;53.100;11.098;2022-10-23T13:58:11;19.00;99.90
12287;DHT22;6206;53.100;11.098;2022-10-23T14:00:38;17.70;99.90
12287;DHT22;6206;53.100;11.098;2022-10-23T14:03:05;17.80;99.90
12287;DHT22;6206;53.100;11.098;2022-10-23T14:05:32;17.80;99.90
12287;DHT22;6206;53.100;11.098;2022-10-23T14:07:58;18.90;99.90
12287;DHT22;6206;53.100;11.098;2022-10-23T14:10:25;18.60;99.90
12287;DHT22;6206;53.100;11.098;2022-10-23T14:12:52;18.00;99.90
12287;DHT22;6206;53.100;11.098;2022-10-23T14:15:21;17.70;99.90
12287;DHT22;6206;53.100;11.098;2022-10-23T14:17:48;17.90;99.90
12287;DHT22;6206;53.100;11.098;2022-10-23T14:20:15;17.70;99.90
12287;DHT22;6206;53.100;11.098;2022-10-23T14:22:41;17.80;99.90
12287;DHT22;6206;53.100;11.098;2022-10-23T14:25:08;18.20;99.90
12287;DHT22;6206;53.100;11.098;2022-10-23T14:27:35;17.70;99.90
12287;DHT22;6206;53.100;11.098;2022-10-23T14:30:03;18.40;99.90
12287;DHT22;6206;53.100;11.098;2022-10-23T14:32:31;17.60;99.90
12287;DHT22;6206;53.100;11.098;2022-10-23T14:34:58;17.80;99.90
12287;DHT22;6206;53.100;11.098;2022-10-23T14:37:28;17.10;99.90
12287;DHT22;6206;53.100;11.098;2022-10-23T14:39:56;16.80;99.90
12287;DHT22;6206;53.100;11.098;2022-10-23T14:42:23;17.20;99.90
12287;DHT22;6206;53.100;11.098;2022-10-23T14:44:50;16.70;99.90
12287;DHT22;6206;53.100;11.098;2022-10-23T14:47:17;17.30;99.90
12287;DHT22;6206;53.100;11.098;2022-10-23T14:49:48;17.20;99.90
12287;DHT22;6206;53.100;11.098;2022-10-23T14:52:17;16.90;99.90
12287;DHT22;6206;53.100;11.098;2022-10-23T14:54:44;17.00;99.90
12287;DHT22;6206;53.100;11.098;2022-10-23T14:57:11;16.90;99.90
12287;DHT22;6206;53.100;11.098;2022-10-23T14:59:41;16.60;99.90
12287;DHT22;6206;53.100;11.098;2022-10-23T15:02:09;17.40;99.90
12287;DHT22;6206;53.100;11.098;2022-10-23T15:04:36;15.80;99.90
12287;DHT22;6206;53.100;11.098;2022-10-23T15:07:04;16.60;99.90
12287;DHT22;6206;53.100;11.098;2022-10-23T15:09:31;16.30;99.90
12287;DHT22;6206;53.100;11.098;2022-10-23T15:11:59;16.70;99.90
12287;DHT22;6206;53.100;11.098;2022-10-23T15:14:26;16.80;99.90
12287;DHT22;6206;53.100;11.098;2022-10-23T15:16:53;16.70;99.90
12287;DHT22;6206;53.100;11.098;2022-10-23T15:19:20;16.50;99.90
12287;DHT22;6206;53.100;11.098;2022-10-23T15:21:47;16.80;99.90
12287;DHT22;6206;53.100;11.098;2022-10-23T15:24:16;17.90;99.90
12287;DHT22;6206;53.100;11.098;2022-10-23T15:26:43;16.70;99.90
12287;DHT22;6206;53.100;11.098;2022-10-23T15:29:10;16.40;99.90
12287;DHT22;6206;53.100;11.098;2022-10-23T15:31:40;16.80;99.90
12287;DHT22;6206;53.100;11.098;2022-10-23T15:34:08;17.60;99.90
12287;DHT22;6206;53.100;11.098;2022-10-23T15:36:35;16.90;99.90
12287;DHT22;6206;53.100;11.098;2022-10-23T15:39:05;16.50;99.90
12287;DHT22;6206;53.100;11.098;2022-10-23T15:41:36;16.20;99.90
12287;DHT22;6206;53.100;11.098;2022-10-23T15:44:04;17.20;99.90
12287;DHT22;6206;53.100;11.098;2022-10-23T15:46:31;16.20;99.90
12287;DHT22;6206;53.100;11.098;2022-10-23T15:48:58;17.00;99.90
12287;DHT22;6206;53.100;11.098;2022-10-23T15:51:25;16.30;99.90
12287;DHT22;6206;53.100;11.098;2022-10-23T15:53:52;16.10;99.90